CDT,Max TemperatureF,Mean TemperatureF,Min TemperatureF,Max Dew PointF,MeanDew PointF,Min DewpointF,Max Humidity, Mean Humidity, Min Humidity, Max Sea Level PressureIn, Mean Sea Level PressureIn, Min Sea Level PressureIn, Max VisibilityMiles, Mean VisibilityMiles, Min VisibilityMiles, Max Wind SpeedMPH, Mean Wind SpeedMPH, Max Gust SpeedMPH,PrecipitationIn, CloudCover, Events, WindDirDegrees
2013-6-1,68,62,55,59,56,50,94,79,64,29.87,29.69,29.59,10,10,2,24,11,31,0.22,5,Rain,255
2013-6-2,62,55,48,50,44,41,87,67,45,30.08,30.02,29.88,10,10,7,21,14,31,0.00,5,,357
2013-6-3,68,57,46,50,45,41,87,61,37,30.10,30.05,29.98,10,10,10,13,5,18,0.00,1,,132
2013-6-4,60,56,53,54,51,48,94,79,67,30.14,30.07,30.03,10,8,1,20,10,26,0.60,7,Rain,119
2013-6-5,64,60,55,59,56,50,100,91,77,30.06,29.98,29.92,10,5,0,12,7,,0.10,8,Rain,112
2013-6-6,64,58,53,57,54,52,100,85,68,30.00,29.95,29.91,10,6,0,15,6,21,0.00,7,Fog-Rain,357
2013-6-7,64,58,53,55,53,52,100,83,64,30.03,29.99,29.94,10,8,0,13,7,,0.00,7,Rain,359
2013-6-8,69,60,51,59,54,50,100,77,53,29.95,29.92,29.87,10,9,2,17,5,20,0.02,3,Rain,135
2013-6-9,69,64,60,63,58,54,94,80,72,29.87,29.78,29.74,10,9,1,18,14,26,0.13,6,Rain,126
2013-6-10,75,67,59,63,60,59,100,80,57,29.90,29.85,29.79,10,7,0,9,4,14,0.00,5,Fog,21
2013-6-11,86,72,59,66,63,59,100,72,48,29.91,29.87,29.79,10,9,3,14,6,24,0.08,1,Rain,147
2013-6-12,82,75,66,72,68,63,94,84,70,29.92,29.77,29.66,10,9,0,25,11,46,1.32,5,Rain,64
2013-6-13,77,68,59,63,57,52,88,66,41,30.07,30.02,29.87,10,10,10,16,11,20,0.00,0,,6
2013-6-14,75,67,59,61,58,55,88,72,57,30.11,30.03,29.92,10,10,8,21,9,25,0.00,2,,134
2013-6-15,77,70,64,70,65,61,94,85,69,30.02,29.92,29.85,10,9,3,23,11,28,0.36,4,Rain,194
2013-6-16,82,72,62,64,57,48,100,62,32,29.97,29.95,29.91,10,9,1,15,6,24,0.00,0,,279
2013-6-17,84,72,59,59,55,52,88,56,35,29.98,29.95,29.90,10,10,10,16,7,21,0.00,0,,297
2013-6-18,75,68,60,59,57,55,88,70,50,30.08,30.03,29.97,10,10,7,14,7,20,0.00,2,Rain,69
2013-6-19,82,71,60,59,57,54,82,62,39,30.12,30.06,30.00,10,10,10,15,10,21,0.00,2,,144
2013-6-20,87,76,66,64,61,57,83,58,40,30.07,30.02,29.95,10,10,5,25,13,30,0.01,2,Rain,162
2013-6-21,82,73,64,72,67,63,94,77,65,30.06,29.94,29.87,10,9,2,31,14,45,0.64,5,Rain,148
2013-6-22,89,78,66,75,68,63,94,77,52,30.02,29.92,29.82,10,10,4,23,13,29,0.02,4,Rain,150
2013-6-23,78,72,66,70,66,61,94,80,61,29.95,29.90,29.79,10,9,2,22,13,31,0.22,3,Rain,177
2013-6-24,71,68,66,68,66,63,94,89,78,30.04,29.92,29.83,10,9,1,21,8,31,0.35,5,Rain,163
2013-6-25,82,74,66,75,69,64,94,85,70,29.87,29.81,29.75,10,9,2,20,9,33,0.06,3,Rain,143
2013-6-26,84,76,68,75,68,64,100,80,54,29.85,29.76,29.70,10,9,2,20,9,25,0.17,4,Rain,186
2013-6-27,84,74,64,68,61,52,94,64,33,29.89,29.86,29.83,10,10,10,26,9,37,0.00,0,,286
2013-6-28,78,72,66,63,59,55,83,64,47,29.86,29.80,29.76,10,10,7,30,14,38,0.00,3,,315
2013-6-29,69,64,60,63,59,55,94,83,64,29.94,29.82,29.75,10,9,0,23,12,31,0.41,5,Rain,356
2013-6-30,75,66,57,55,52,46,82,62,38,30.11,30.04,29.94,10,10,7,17,9,23,0.00,1,,13